sensor_id;sensor_type;location;lat;lon;timestamp;P1;durP1;ratioP1;P2;durP2;ratioP2
53245;SDS011;39569;51.090;-1.786;2022-11-21T00:01:31;6.13;;;3.85;;
53245;SDS011;39569;51.090;-1.786;2022-11-21T00:04:56;7.50;;;4.10;;
53245;SDS011;39569;51.090;-1.786;2022-11-21T00:08:22;50.17;;;20.25;;
53245;SDS011;39569;51.090;-1.786;2022-11-21T00:11:49;7.45;;;3.78;;
53245;SDS011;39569;51.090;-1.786;2022-11-21T00:15:20;4.68;;;4.25;;
53245;SDS011;39569;51.090;-1.786;2022-11-21T00:18:45;6.05;;;5.35;;
53245;SDS011;39569;51.090;-1.786;2022-11-21T00:22:10;11.13;;;4.20;;
53245;SDS011;39569;51.090;-1.786;2022-11-21T00:25:36;8.77;;;4.22;;
53245;SDS011;39569;51.090;-1.786;2022-11-21T00:29:02;17.38;;;4.05;;
53245;SDS011;39569;51.090;-1.786;2022-11-21T00:32:30;41.28;;;12.95;;
53245;SDS011;39569;51.090;-1.786;2022-11-21T00:35:55;8.85;;;3.38;;
53245;SDS011;39569;51.090;-1.786;2022-11-21T00:39:20;6.53;;;3.85;;
53245;SDS011;39569;51.090;-1.786;2022-11-21T00:42:46;10.40;;;4.70;;
53245;SDS011;39569;51.090;-1.786;2022-11-21T00:46:11;18.98;;;3.85;;
53245;SDS011;39569;51.090;-1.786;2022-11-21T00:49:38;40.40;;;12.25;;
53245;SDS011;39569;51.090;-1.786;2022-11-21T00:53:03;16.48;;;4.05;;
53245;SDS011;39569;51.090;-1.786;2022-11-21T00:56:28;20.67;;;3.97;;
53245;SDS011;39569;51.090;-1.786;2022-11-21T00:59:54;17.00;;;6.25;;
53245;SDS011;39569;51.090;-1.786;2022-11-21T01:03:27;22.27;;;4.97;;
53245;SDS011;39569;51.090;-1.786;2022-11-21T01:06:57;8.73;;;4.97;;
53245;SDS011;39569;51.090;-1.786;2022-11-21T01:10:22;9.77;;;4.60;;
53245;SDS011;39569;51.090;-1.786;2022-11-21T01:13:47;56.38;;;14.77;;
53245;SDS011;39569;51.090;-1.786;2022-11-21T01:17:13;49.72;;;14.55;;
53245;SDS011;39569;51.090;-1.786;2022-11-21T01:20:38;2.72;;;2.53;;
53245;SDS011;39569;51.090;-1.786;2022-11-21T01:24:05;3.92;;;3.03;;
53245;SDS011;39569;51.090;-1.786;2022-11-21T01:27:31;11.25;;;3.78;;
53245;SDS011;39569;51.090;-1.786;2022-11-21T01:31:01;6.57;;;5.30;;
53245;SDS011;39569;51.090;-1.786;2022-11-21T01:34:27;20.40;;;5.88;;
53245;SDS011;39569;51.090;-1.786;2022-11-21T01:37:52;49.65;;;14.13;;
53245;SDS011;39569;51.090;-1.786;2022-11-21T01:41:20;5.20;;;3.35;;
53245;SDS011;39569;51.090;-1.786;2022-11-21T01:48:31;17.23;;;4.63;;
53245;SDS011;39569;51.090;-1.786;2022-11-21T01:51:58;17.45;;;3.47;;
53245;SDS011;39569;51.090;-1.786;2022-11-21T01:55:25;13.85;;;4.85;;
53245;SDS011;39569;51.090;-1.786;2022-11-21T01:58:52;3.05;;;2.83;;
53245;SDS011;39569;51.090;-1.786;2022-11-21T02:02:22;18.95;;;5.07;;
53245;SDS011;39569;51.090;-1.786;2022-11-21T02:09:15;10.60;;;3.35;;
53245;SDS011;39569;51.090;-1.786;2022-11-21T02:12:43;6.63;;;3.50;;
53245;SDS011;39569;51.090;-1.786;2022-11-21T02:16:09;13.40;;;4.03;;
53245;SDS011;39569;51.090;-1.786;2022-11-21T02:19:39;3.58;;;2.55;;
53245;SDS011;39569;51.090;-1.786;2022-11-21T02:23:11;9.80;;;4.93;;
53245;SDS011;39569;51.090;-1.786;2022-11-21T02:26:43;7.93;;;3.60;;
53245;SDS011;39569;51.090;-1.786;2022-11-21T02:30:11;1.83;;;1.50;;
53245;SDS011;39569;51.090;-1.786;2022-11-21T02:33:36;4.50;;;2.67;;
53245;SDS011;39569;51.090;-1.786;2022-11-21T02:37:01;3.88;;;2.60;;
53245;SDS011;39569;51.090;-1.786;2022-11-21T02:40:30;29.95;;;7.40;;
53245;SDS011;39569;51.090;-1.786;2022-11-21T02:44:01;10.48;;;2.47;;
53245;SDS011;39569;51.090;-1.786;2022-11-21T02:47:33;22.27;;;4.10;;
53245;SDS011;39569;51.090;-1.786;2022-11-21T02:51:00;9.30;;;3.95;;
53245;SDS011;39569;51.090;-1.786;2022-11-21T02:54:25;7.80;;;4.10;;
53245;SDS011;39569;51.090;-1.786;2022-11-21T02:57:51;16.42;;;4.30;;
53245;SDS011;39569;51.090;-1.786;2022-11-21T03:01:18;10.10;;;3.08;;
53245;SDS011;39569;51.090;-1.786;2022-11-21T03:04:44;6.93;;;3.65;;
53245;SDS011;39569;51.090;-1.786;2022-11-21T03:08:09;4.80;;;3.08;;
53245;SDS011;39569;51.090;-1.786;2022-11-21T03:11:36;12.57;;;3.63;;
53245;SDS011;39569;51.090;-1.786;2022-11-21T03:15:02;4.22;;;2.10;;
53245;SDS011;39569;51.090;-1.786;2022-11-21T03:18:29;3.33;;;3.05;;
53245;SDS011;39569;51.090;-1.786;2022-11-21T03:21:54;11.57;;;2.60;;
53245;SDS011;39569;51.090;-1.786;2022-11-21T03:25:19;10.52;;;3.30;;
53245;SDS011;39569;51.090;-1.786;2022-11-21T03:28:45;13.70;;;4.30;;
53245;SDS011;39569;51.090;-1.786;2022-11-21T03:32:10;10.80;;;2.72;;
53245;SDS011;39569;51.090;-1.786;2022-11-21T03:35:37;5.95;;;2.38;;
53245;SDS011;39569;51.090;-1.786;2022-11-21T03:39:03;10.95;;;2.47;;
53245;SDS011;39569;51.090;-1.786;2022-11-21T03:42:28;8.73;;;3.28;;
53245;SDS011;39569;51.090;-1.786;2022-11-21T03:45:53;28.67;;;9.73;;
53245;SDS011;39569;51.090;-1.786;2022-11-21T03:49:19;4.78;;;3.00;;
53245;SDS011;39569;51.090;-1.786;2022-11-21T03:52:47;13.05;;;4.00;;
53245;SDS011;39569;51.090;-1.786;2022-11-21T03:56:12;7.57;;;2.65;;
53245;SDS011;39569;51.090;-1.786;2022-11-21T03:59:37;10.10;;;3.60;;
53245;SDS011;39569;51.090;-1.786;2022-11-21T04:03:02;19.40;;;4.60;;
53245;SDS011;39569;51.090;-1.786;2022-11-21T04:06:28;46.08;;;11.95;;
53245;SDS011;39569;51.090;-1.786;2022-11-21T04:09:55;16.83;;;4.63;;
53245;SDS011;39569;51.090;-1.786;2022-11-21T04:13:20;36.67;;;11.07;;
53245;SDS011;39569;51.090;-1.786;2022-11-21T04:16:46;8.15;;;4.28;;
53245;SDS011;39569;51.090;-1.786;2022-11-21T04:20:11;28.50;;;3.42;;
53245;SDS011;39569;51.090;-1.786;2022-11-21T04:23:36;12.77;;;4.82;;
53245;SDS011;39569;51.090;-1.786;2022-11-21T04:27:03;33.00;;;10.05;;
53245;SDS011;39569;51.090;-1.786;2022-11-21T04:30:29;6.65;;;4.55;;
53245;SDS011;39569;51.090;-1.786;2022-11-21T04:33:56;9.57;;;4.25;;
53245;SDS011;39569;51.090;-1.786;2022-11-21T04:37:21;6.35;;;2.40;;
53245;SDS011;39569;51.090;-1.786;2022-11-21T04:40:46;5.50;;;1.85;;
53245;SDS011;39569;51.090;-1.786;2022-11-21T04:44:13;10.05;;;5.50;;
53245;SDS011;39569;51.090;-1.786;2022-11-21T04:47:40;6.20;;;2.72;;
53245;SDS011;39569;51.090;-1.786;2022-11-21T04:51:05;40.60;;;12.95;;
53245;SDS011;39569;51.090;-1.786;2022-11-21T04:54:31;30.90;;;10.15;;
53245;SDS011;39569;51.090;-1.786;2022-11-21T04:57:57;16.45;;;3.83;;
53245;SDS011;39569;51.090;-1.786;2022-11-21T05:01:24;10.65;;;3.00;;
53245;SDS011;39569;51.090;-1.786;2022-11-21T05:04:49;7.38;;;2.70;;
53245;SDS011;39569;51.090;-1.786;2022-11-21T05:08:14;18.73;;;4.53;;
53245;SDS011;39569;51.090;-1.786;2022-11-21T05:11:40;23.45;;;6.38;;
53245;SDS011;39569;51.090;-1.786;2022-11-21T05:15:23;40.92;;;12.73;;
53245;SDS011;39569;51.090;-1.786;2022-11-21T05:18:49;37.83;;;11.90;;
53245;SDS011;39569;51.090;-1.786;2022-11-21T05:22:14;2.40;;;2.20;;
53245;SDS011;39569;51.090;-1.786;2022-11-21T05:25:40;72.10;;;15.50;;
53245;SDS011;39569;51.090;-1.786;2022-11-21T05:29:05;46.75;;;14.05;;
53245;SDS011;39569;51.090;-1.786;2022-11-21T05:32:31;49.63;;;13.55;;
53245;SDS011;39569;51.090;-1.786;2022-11-21T05:35:58;7.60;;;4.47;;
53245;SDS011;39569;51.090;-1.786;2022-11-21T05:39:23;47.53;;;11.98;;
53245;SDS011;39569;51.090;-1.786;2022-11-21T05:42:49;47.60;;;13.07;;
53245;SDS011;39569;51.090;-1.786;2022-11-21T05:46:15;6.78;;;2.78;;
53245;SDS011;39569;51.090;-1.786;2022-11-21T05:49:41;6.95;;;3.15;;
53245;SDS011;39569;51.090;-1.786;2022-11-21T05:53:08;51.25;;;13.32;;
53245;SDS011;39569;51.090;-1.786;2022-11-21T05:56:33;4.25;;;2.60;;
53245;SDS011;39569;51.090;-1.786;2022-11-21T05:59:59;62.28;;;13.50;;
53245;SDS011;39569;51.090;-1.786;2022-11-21T06:03:24;56.22;;;15.13;;
53245;SDS011;39569;51.090;-1.786;2022-11-21T06:06:48;75.38;;;14.95;;
53245;SDS011;39569;51.090;-1.786;2022-11-21T06:10:16;8.52;;;3.58;;
53245;SDS011;39569;51.090;-1.786;2022-11-21T06:13:42;33.28;;;13.40;;
53245;SDS011;39569;51.090;-1.786;2022-11-21T06:17:07;40.00;;;10.77;;
53245;SDS011;39569;51.090;-1.786;2022-11-21T06:20:32;49.35;;;12.40;;
53245;SDS011;39569;51.090;-1.786;2022-11-21T06:24:01;35.90;;;10.90;;
53245;SDS011;39569;51.090;-1.786;2022-11-21T06:27:28;46.83;;;11.50;;
53245;SDS011;39569;51.090;-1.786;2022-11-21T06:30:55;51.00;;;12.70;;
53245;SDS011;39569;51.090;-1.786;2022-11-21T06:34:21;51.80;;;12.05;;
53245;SDS011;39569;51.090;-1.786;2022-11-21T06:37:46;36.75;;;10.38;;
53245;SDS011;39569;51.090;-1.786;2022-11-21T06:41:12;43.83;;;12.90;;
53245;SDS011;39569;51.090;-1.786;2022-11-21T06:44:39;64.03;;;14.23;;
53245;SDS011;39569;51.090;-1.786;2022-11-21T06:48:06;50.45;;;13.90;;
53245;SDS011;39569;51.090;-1.786;2022-11-21T06:51:31;9.02;;;4.68;;
53245;SDS011;39569;51.090;-1.786;2022-11-21T06:54:58;1.42;;;1.33;;
53245;SDS011;39569;51.090;-1.786;2022-11-21T06:58:24;45.35;;;11.07;;
53245;SDS011;39569;51.090;-1.786;2022-11-21T07:01:50;8.95;;;5.43;;
53245;SDS011;39569;51.090;-1.786;2022-11-21T07:05:16;48.70;;;9.85;;
53245;SDS011;39569;51.090;-1.786;2022-11-21T07:08:41;52.47;;;11.50;;
53245;SDS011;39569;51.090;-1.786;2022-11-21T07:12:08;46.03;;;11.13;;
53245;SDS011;39569;51.090;-1.786;2022-11-21T07:15:49;29.50;;;6.38;;
53245;SDS011;39569;51.090;-1.786;2022-11-21T07:19:16;44.60;;;11.68;;
53245;SDS011;39569;51.090;-1.786;2022-11-21T07:22:41;41.50;;;10.23;;
53245;SDS011;39569;51.090;-1.786;2022-11-21T07:26:06;58.40;;;14.90;;
53245;SDS011;39569;51.090;-1.786;2022-11-21T07:29:32;39.63;;;10.93;;
53245;SDS011;39569;51.090;-1.786;2022-11-21T07:32:58;9.40;;;3.67;;
53245;SDS011;39569;51.090;-1.786;2022-11-21T07:36:25;15.43;;;7.90;;
53245;SDS011;39569;51.090;-1.786;2022-11-21T07:39:50;39.92;;;12.05;;
53245;SDS011;39569;51.090;-1.786;2022-11-21T07:43:15;40.42;;;10.80;;
53245;SDS011;39569;51.090;-1.786;2022-11-21T07:46:41;49.55;;;12.93;;
53245;SDS011;39569;51.090;-1.786;2022-11-21T07:50:07;25.45;;;4.70;;
53245;SDS011;39569;51.090;-1.786;2022-11-21T07:53:35;34.35;;;5.30;;
53245;SDS011;39569;51.090;-1.786;2022-11-21T07:57:01;53.53;;;10.23;;
53245;SDS011;39569;51.090;-1.786;2022-11-21T08:00:27;60.60;;;12.70;;
53245;SDS011;39569;51.090;-1.786;2022-11-21T08:03:53;46.63;;;11.73;;
53245;SDS011;39569;51.090;-1.786;2022-11-21T08:07:19;50.50;;;12.20;;
53245;SDS011;39569;51.090;-1.786;2022-11-21T08:10:46;52.22;;;13.85;;
53245;SDS011;39569;51.090;-1.786;2022-11-21T08:14:11;17.60;;;4.25;;
53245;SDS011;39569;51.090;-1.786;2022-11-21T08:17:36;50.28;;;12.82;;
53245;SDS011;39569;51.090;-1.786;2022-11-21T08:21:03;66.43;;;14.75;;
53245;SDS011;39569;51.090;-1.786;2022-11-21T08:24:28;60.10;;;12.85;;
53245;SDS011;39569;51.090;-1.786;2022-11-21T08:27:56;48.38;;;10.98;;
53245;SDS011;39569;51.090;-1.786;2022-11-21T08:31:21;53.65;;;11.13;;
53245;SDS011;39569;51.090;-1.786;2022-11-21T08:34:46;16.55;;;7.60;;
53245;SDS011;39569;51.090;-1.786;2022-11-21T08:38:11;41.22;;;11.13;;
53245;SDS011;39569;51.090;-1.786;2022-11-21T08:41:37;41.25;;;12.07;;
53245;SDS011;39569;51.090;-1.786;2022-11-21T08:45:04;38.60;;;10.23;;
53245;SDS011;39569;51.090;-1.786;2022-11-21T08:48:29;26.20;;;4.27;;
53245;SDS011;39569;51.090;-1.786;2022-11-21T08:51:55;10.55;;;2.85;;
53245;SDS011;39569;51.090;-1.786;2022-11-21T08:55:24;49.97;;;12.23;;
53245;SDS011;39569;51.090;-1.786;2022-11-21T08:58:49;38.03;;;9.75;;
53245;SDS011;39569;51.090;-1.786;2022-11-21T09:02:16;51.63;;;9.73;;
53245;SDS011;39569;51.090;-1.786;2022-11-21T09:05:41;69.25;;;12.45;;
53245;SDS011;39569;51.090;-1.786;2022-11-21T09:09:06;32.45;;;4.50;;
53245;SDS011;39569;51.090;-1.786;2022-11-21T09:12:32;27.23;;;6.13;;
53245;SDS011;39569;51.090;-1.786;2022-11-21T09:15:58;16.23;;;3.10;;
53245;SDS011;39569;51.090;-1.786;2022-11-21T09:19:42;30.33;;;7.50;;
53245;SDS011;39569;51.090;-1.786;2022-11-21T09:23:08;30.27;;;5.88;;
53245;SDS011;39569;51.090;-1.786;2022-11-21T09:26:34;6.85;;;3.80;;
53245;SDS011;39569;51.090;-1.786;2022-11-21T09:30:00;0.30;;;0.30;;
53245;SDS011;39569;51.090;-1.786;2022-11-21T09:33:27;0.30;;;0.30;;
53245;SDS011;39569;51.090;-1.786;2022-11-21T09:36:53;0.82;;;0.82;;
53245;SDS011;39569;51.090;-1.786;2022-11-21T09:40:19;4.70;;;4.22;;
53245;SDS011;39569;51.090;-1.786;2022-11-21T09:44:09;0.30;;;0.30;;
53245;SDS011;39569;51.090;-1.786;2022-11-21T09:47:40;5.10;;;4.75;;
53245;SDS011;39569;51.090;-1.786;2022-11-21T09:51:11;3.15;;;1.85;;
53245;SDS011;39569;51.090;-1.786;2022-11-21T09:54:44;0.30;;;0.30;;
53245;SDS011;39569;51.090;-1.786;2022-11-21T09:58:15;3.53;;;3.22;;
53245;SDS011;39569;51.090;-1.786;2022-11-21T10:01:50;0.63;;;0.63;;
53245;SDS011;39569;51.090;-1.786;2022-11-21T10:05:16;1.67;;;1.55;;
53245;SDS011;39569;51.090;-1.786;2022-11-21T10:08:50;6.45;;;4.10;;
53245;SDS011;39569;51.090;-1.786;2022-11-21T10:12:39;1.63;;;1.52;;
53245;SDS011;39569;51.090;-1.786;2022-11-21T10:16:13;5.28;;;2.88;;
53245;SDS011;39569;51.090;-1.786;2022-11-21T10:19:51;5.65;;;4.93;;
53245;SDS011;39569;51.090;-1.786;2022-11-21T10:23:33;1.02;;;1.02;;
53245;SDS011;39569;51.090;-1.786;2022-11-21T10:27:10;6.45;;;3.65;;
53245;SDS011;39569;51.090;-1.786;2022-11-21T10:30:41;2.28;;;1.25;;
53245;SDS011;39569;51.090;-1.786;2022-11-21T10:34:09;3.83;;;2.55;;
53245;SDS011;39569;51.090;-1.786;2022-11-21T10:37:39;3.20;;;1.85;;
53245;SDS011;39569;51.090;-1.786;2022-11-21T10:41:12;6.32;;;3.47;;
53245;SDS011;39569;51.090;-1.786;2022-11-21T10:44:43;1.75;;;1.65;;
53245;SDS011;39569;51.090;-1.786;2022-11-21T10:48:08;8.82;;;4.32;;
53245;SDS011;39569;51.090;-1.786;2022-11-21T10:51:40;2.05;;;1.95;;
53245;SDS011;39569;51.090;-1.786;2022-11-21T10:55:10;9.98;;;3.08;;
53245;SDS011;39569;51.090;-1.786;2022-11-21T10:58:40;0.50;;;0.50;;
53245;SDS011;39569;51.090;-1.786;2022-11-21T11:02:20;5.38;;;4.30;;
53245;SDS011;39569;51.090;-1.786;2022-11-21T11:05:52;4.18;;;3.88;;
53245;SDS011;39569;51.090;-1.786;2022-11-21T11:09:25;0.80;;;0.80;;
53245;SDS011;39569;51.090;-1.786;2022-11-21T11:12:53;3.63;;;2.35;;
53245;SDS011;39569;51.090;-1.786;2022-11-21T11:16:22;6.70;;;1.25;;
53245;SDS011;39569;51.090;-1.786;2022-11-21T11:19:58;0.40;;;0.40;;
53245;SDS011;39569;51.090;-1.786;2022-11-21T11:23:39;3.30;;;1.05;;
53245;SDS011;39569;51.090;-1.786;2022-11-21T11:27:09;1.38;;;1.27;;
53245;SDS011;39569;51.090;-1.786;2022-11-21T11:30:38;1.88;;;0.55;;
53245;SDS011;39569;51.090;-1.786;2022-11-21T11:34:10;4.57;;;1.02;;
53245;SDS011;39569;51.090;-1.786;2022-11-21T11:37:47;0.32;;;0.32;;
53245;SDS011;39569;51.090;-1.786;2022-11-21T11:41:23;1.83;;;1.67;;
53245;SDS011;39569;51.090;-1.786;2022-11-21T11:45:29;0.45;;;0.45;;
53245;SDS011;39569;51.090;-1.786;2022-11-21T11:49:20;4.70;;;1.63;;
53245;SDS011;39569;51.090;-1.786;2022-11-21T11:52:51;0.25;;;0.25;;
53245;SDS011;39569;51.090;-1.786;2022-11-21T11:56:21;2.00;;;1.88;;
53245;SDS011;39569;51.090;-1.786;2022-11-21T11:59:48;0.30;;;0.30;;
53245;SDS011;39569;51.090;-1.786;2022-11-21T12:03:21;0.30;;;0.30;;
53245;SDS011;39569;51.090;-1.786;2022-11-21T12:06:50;2.92;;;2.20;;
53245;SDS011;39569;51.090;-1.786;2022-11-21T12:10:26;10.52;;;4.10;;
53245;SDS011;39569;51.090;-1.786;2022-11-21T12:18:20;21.60;;;3.10;;
53245;SDS011;39569;51.090;-1.786;2022-11-21T12:21:48;1.17;;;1.17;;
53245;SDS011;39569;51.090;-1.786;2022-11-21T12:25:15;0.35;;;0.35;;
53245;SDS011;39569;51.090;-1.786;2022-11-21T12:28:54;0.30;;;0.30;;
53245;SDS011;39569;51.090;-1.786;2022-11-21T12:32:48;1.33;;;1.33;;
53245;SDS011;39569;51.090;-1.786;2022-11-21T12:36:25;0.30;;;0.30;;
53245;SDS011;39569;51.090;-1.786;2022-11-21T12:40:01;0.30;;;0.30;;
53245;SDS011;39569;51.090;-1.786;2022-11-21T12:43:52;0.32;;;0.32;;
53245;SDS011;39569;51.090;-1.786;2022-11-21T12:47:32;0.60;;;0.60;;
53245;SDS011;39569;51.090;-1.786;2022-11-21T12:51:30;1.52;;;1.42;;
53245;SDS011;39569;51.090;-1.786;2022-11-21T12:55:27;0.85;;;0.85;;
53245;SDS011;39569;51.090;-1.786;2022-11-21T12:58:57;0.40;;;0.40;;
53245;SDS011;39569;51.090;-1.786;2022-11-21T13:02:30;0.30;;;0.30;;
53245;SDS011;39569;51.090;-1.786;2022-11-21T13:06:05;0.30;;;0.30;;
53245;SDS011;39569;51.090;-1.786;2022-11-21T13:09:39;0.30;;;0.30;;
53245;SDS011;39569;51.090;-1.786;2022-11-21T13:13:08;0.30;;;0.30;;
53245;SDS011;39569;51.090;-1.786;2022-11-21T13:16:44;0.35;;;0.35;;
53245;SDS011;39569;51.090;-1.786;2022-11-21T13:20:17;0.30;;;0.30;;
53245;SDS011;39569;51.090;-1.786;2022-11-21T13:24:00;0.30;;;0.30;;
53245;SDS011;39569;51.090;-1.786;2022-11-21T13:27:27;0.30;;;0.30;;
53245;SDS011;39569;51.090;-1.786;2022-11-21T13:30:58;0.40;;;0.40;;
53245;SDS011;39569;51.090;-1.786;2022-11-21T13:34:36;0.40;;;0.40;;
53245;SDS011;39569;51.090;-1.786;2022-11-21T13:38:29;0.80;;;0.80;;
53245;SDS011;39569;51.090;-1.786;2022-11-21T13:41:58;0.20;;;0.20;;
53245;SDS011;39569;51.090;-1.786;2022-11-21T13:45:41;1.45;;;0.73;;
53245;SDS011;39569;51.090;-1.786;2022-11-21T13:49:26;0.32;;;0.32;;
53245;SDS011;39569;51.090;-1.786;2022-11-21T13:53:05;0.35;;;0.35;;
53245;SDS011;39569;51.090;-1.786;2022-11-21T13:57:06;1.30;;;1.30;;
53245;SDS011;39569;51.090;-1.786;2022-11-21T14:04:32;0.20;;;0.20;;
53245;SDS011;39569;51.090;-1.786;2022-11-21T14:08:18;0.50;;;0.50;;
53245;SDS011;39569;51.090;-1.786;2022-11-21T14:11:56;0.40;;;0.40;;
53245;SDS011;39569;51.090;-1.786;2022-11-21T14:15:27;1.80;;;0.60;;
53245;SDS011;39569;51.090;-1.786;2022-11-21T14:19:00;0.30;;;0.30;;
53245;SDS011;39569;51.090;-1.786;2022-11-21T14:22:35;0.20;;;0.20;;
53245;SDS011;39569;51.090;-1.786;2022-11-21T14:26:02;0.70;;;0.70;;
53245;SDS011;39569;51.090;-1.786;2022-11-21T14:29:38;1.65;;;1.58;;
53245;SDS011;39569;51.090;-1.786;2022-11-21T14:33:20;0.77;;;0.77;;
53245;SDS011;39569;51.090;-1.786;2022-11-21T14:36:52;0.75;;;0.75;;
53245;SDS011;39569;51.090;-1.786;2022-11-21T14:40:19;0.30;;;0.30;;
53245;SDS011;39569;51.090;-1.786;2022-11-21T14:44:05;0.52;;;0.52;;
53245;SDS011;39569;51.090;-1.786;2022-11-21T14:47:47;0.30;;;0.30;;
53245;SDS011;39569;51.090;-1.786;2022-11-21T14:51:13;0.63;;;0.63;;
53245;SDS011;39569;51.090;-1.786;2022-11-21T14:54:45;0.85;;;0.85;;
53245;SDS011;39569;51.090;-1.786;2022-11-21T14:58:14;9.13;;;2.55;;
53245;SDS011;39569;51.090;-1.786;2022-11-21T15:01:54;0.47;;;0.47;;
53245;SDS011;39569;51.090;-1.786;2022-11-21T15:05:21;0.50;;;0.50;;
53245;SDS011;39569;51.090;-1.786;2022-11-21T15:08:47;6.65;;;2.75;;
53245;SDS011;39569;51.090;-1.786;2022-11-21T15:12:12;2.30;;;2.20;;
53245;SDS011;39569;51.090;-1.786;2022-11-21T15:15:45;0.77;;;0.77;;
53245;SDS011;39569;51.090;-1.786;2022-11-21T15:19:17;2.47;;;2.30;;
53245;SDS011;39569;51.090;-1.786;2022-11-21T15:22:46;0.47;;;0.47;;
53245;SDS011;39569;51.090;-1.786;2022-11-21T15:26:25;0.30;;;0.30;;
53245;SDS011;39569;51.090;-1.786;2022-11-21T15:33:52;0.75;;;0.52;;
53245;SDS011;39569;51.090;-1.786;2022-11-21T15:37:19;0.93;;;0.93;;
53245;SDS011;39569;51.090;-1.786;2022-11-21T15:41:03;5.43;;;1.70;;
53245;SDS011;39569;51.090;-1.786;2022-11-21T15:44:55;15.20;;;2.47;;
53245;SDS011;39569;51.090;-1.786;2022-11-21T15:48:26;1.77;;;1.67;;
53245;SDS011;39569;51.090;-1.786;2022-11-21T15:51:53;8.27;;;1.88;;
53245;SDS011;39569;51.090;-1.786;2022-11-21T15:55:19;0.30;;;0.30;;
53245;SDS011;39569;51.090;-1.786;2022-11-21T15:58:46;1.08;;;0.60;;
53245;SDS011;39569;51.090;-1.786;2022-11-21T16:02:12;5.20;;;4.78;;
53245;SDS011;39569;51.090;-1.786;2022-11-21T16:05:38;3.17;;;3.03;;
53245;SDS011;39569;51.090;-1.786;2022-11-21T16:09:05;3.05;;;2.85;;
53245;SDS011;39569;51.090;-1.786;2022-11-21T16:12:31;0.30;;;0.30;;
53245;SDS011;39569;51.090;-1.786;2022-11-21T16:15:58;1.85;;;1.77;;
53245;SDS011;39569;51.090;-1.786;2022-11-21T16:19:23;0.30;;;0.30;;
53245;SDS011;39569;51.090;-1.786;2022-11-21T16:22:49;0.30;;;0.30;;
53245;SDS011;39569;51.090;-1.786;2022-11-21T16:26:16;0.17;;;0.17;;
53245;SDS011;39569;51.090;-1.786;2022-11-21T16:29:41;0.30;;;0.30;;
53245;SDS011;39569;51.090;-1.786;2022-11-21T16:33:07;1.10;;;1.02;;
53245;SDS011;39569;51.090;-1.786;2022-11-21T16:36:32;2.40;;;2.25;;
53245;SDS011;39569;51.090;-1.786;2022-11-21T16:39:58;4.93;;;4.43;;
53245;SDS011;39569;51.090;-1.786;2022-11-21T16:43:25;4.28;;;3.92;;
53245;SDS011;39569;51.090;-1.786;2022-11-21T16:46:54;6.97;;;3.33;;
53245;SDS011;39569;51.090;-1.786;2022-11-21T16:50:20;1.77;;;1.67;;
53245;SDS011;39569;51.090;-1.786;2022-11-21T16:53:47;1.90;;;1.23;;
53245;SDS011;39569;51.090;-1.786;2022-11-21T16:57:13;1.35;;;1.25;;
53245;SDS011;39569;51.090;-1.786;2022-11-21T17:00:39;0.30;;;0.30;;
53245;SDS011;39569;51.090;-1.786;2022-11-21T17:04:05;0.30;;;0.30;;
53245;SDS011;39569;51.090;-1.786;2022-11-21T17:07:30;15.02;;;4.88;;
53245;SDS011;39569;51.090;-1.786;2022-11-21T17:10:56;0.40;;;0.40;;
53245;SDS011;39569;51.090;-1.786;2022-11-21T17:14:22;0.28;;;0.28;;
53245;SDS011;39569;51.090;-1.786;2022-11-21T17:17:49;2.40;;;2.22;;
53245;SDS011;39569;51.090;-1.786;2022-11-21T17:21:17;5.10;;;3.60;;
53245;SDS011;39569;51.090;-1.786;2022-11-21T17:24:44;10.95;;;5.82;;
53245;SDS011;39569;51.090;-1.786;2022-11-21T17:28:09;4.22;;;3.85;;
53245;SDS011;39569;51.090;-1.786;2022-11-21T17:31:35;3.20;;;2.78;;
53245;SDS011;39569;51.090;-1.786;2022-11-21T17:35:02;0.32;;;0.32;;
53245;SDS011;39569;51.090;-1.786;2022-11-21T17:38:28;0.40;;;0.40;;
53245;SDS011;39569;51.090;-1.786;2022-11-21T17:41:53;2.42;;;2.15;;
53245;SDS011;39569;51.090;-1.786;2022-11-21T17:45:18;3.20;;;2.92;;
53245;SDS011;39569;51.090;-1.786;2022-11-21T17:48:44;0.30;;;0.30;;
53245;SDS011;39569;51.090;-1.786;2022-11-21T17:52:11;2.33;;;2.13;;
53245;SDS011;39569;51.090;-1.786;2022-11-21T17:55:36;2.13;;;1.33;;
53245;SDS011;39569;51.090;-1.786;2022-11-21T17:59:03;0.30;;;0.30;;
53245;SDS011;39569;51.090;-1.786;2022-11-21T18:02:29;10.18;;;2.92;;
53245;SDS011;39569;51.090;-1.786;2022-11-21T18:05:58;2.33;;;2.22;;
53245;SDS011;39569;51.090;-1.786;2022-11-21T18:09:25;7.78;;;3.50;;
53245;SDS011;39569;51.090;-1.786;2022-11-21T18:12:50;15.88;;;2.38;;
53245;SDS011;39569;51.090;-1.786;2022-11-21T18:16:16;3.80;;;3.30;;
53245;SDS011;39569;51.090;-1.786;2022-11-21T18:19:42;3.10;;;1.75;;
53245;SDS011;39569;51.090;-1.786;2022-11-21T18:23:07;0.40;;;0.40;;
53245;SDS011;39569;51.090;-1.786;2022-11-21T18:26:35;0.30;;;0.30;;
53245;SDS011;39569;51.090;-1.786;2022-11-21T18:30:01;3.65;;;3.38;;
53245;SDS011;39569;51.090;-1.786;2022-11-21T18:33:30;2.20;;;2.05;;
53245;SDS011;39569;51.090;-1.786;2022-11-21T18:36:55;0.25;;;0.25;;
53245;SDS011;39569;51.090;-1.786;2022-11-21T18:40:22;1.88;;;1.77;;
53245;SDS011;39569;51.090;-1.786;2022-11-21T18:43:51;1.60;;;1.50;;
53245;SDS011;39569;51.090;-1.786;2022-11-21T18:47:17;0.30;;;0.30;;
53245;SDS011;39569;51.090;-1.786;2022-11-21T18:50:42;0.30;;;0.30;;
53245;SDS011;39569;51.090;-1.786;2022-11-21T18:54:07;2.45;;;2.28;;
53245;SDS011;39569;51.090;-1.786;2022-11-21T18:57:33;0.30;;;0.30;;
53245;SDS011;39569;51.090;-1.786;2022-11-21T19:01:01;0.40;;;0.40;;
53245;SDS011;39569;51.090;-1.786;2022-11-21T19:04:27;1.40;;;1.40;;
53245;SDS011;39569;51.090;-1.786;2022-11-21T19:07:52;0.28;;;0.28;;
53245;SDS011;39569;51.090;-1.786;2022-11-21T19:11:19;0.30;;;0.30;;
53245;SDS011;39569;51.090;-1.786;2022-11-21T19:14:44;5.55;;;2.70;;
53245;SDS011;39569;51.090;-1.786;2022-11-21T19:18:11;1.60;;;1.55;;
53245;SDS011;39569;51.090;-1.786;2022-11-21T19:21:39;0.80;;;0.80;;
53245;SDS011;39569;51.090;-1.786;2022-11-21T19:25:04;0.30;;;0.30;;
53245;SDS011;39569;51.090;-1.786;2022-11-21T19:28:31;1.10;;;1.10;;
53245;SDS011;39569;51.090;-1.786;2022-11-21T19:31:57;0.30;;;0.30;;
53245;SDS011;39569;51.090;-1.786;2022-11-21T19:35:24;9.27;;;4.32;;
53245;SDS011;39569;51.090;-1.786;2022-11-21T19:38:49;0.30;;;0.30;;
53245;SDS011;39569;51.090;-1.786;2022-11-21T19:42:15;0.40;;;0.40;;
53245;SDS011;39569;51.090;-1.786;2022-11-21T19:45:40;3.45;;;2.20;;
53245;SDS011;39569;51.090;-1.786;2022-11-21T19:49:06;1.40;;;1.25;;
53245;SDS011;39569;51.090;-1.786;2022-11-21T19:52:34;0.30;;;0.30;;
53245;SDS011;39569;51.090;-1.786;2022-11-21T19:59:25;0.30;;;0.30;;
53245;SDS011;39569;51.090;-1.786;2022-11-21T20:02:51;0.30;;;0.30;;
53245;SDS011;39569;51.090;-1.786;2022-11-21T20:06:17;0.30;;;0.30;;
53245;SDS011;39569;51.090;-1.786;2022-11-21T20:09:44;0.45;;;0.45;;
53245;SDS011;39569;51.090;-1.786;2022-11-21T20:13:10;2.60;;;2.08;;
53245;SDS011;39569;51.090;-1.786;2022-11-21T20:16:37;0.30;;;0.30;;
53245;SDS011;39569;51.090;-1.786;2022-11-21T20:20:02;1.77;;;1.67;;
53245;SDS011;39569;51.090;-1.786;2022-11-21T20:23:34;0.20;;;0.20;;
53245;SDS011;39569;51.090;-1.786;2022-11-21T20:27:01;0.30;;;0.30;;
53245;SDS011;39569;51.090;-1.786;2022-11-21T20:30:26;1.23;;;1.23;;
53245;SDS011;39569;51.090;-1.786;2022-11-21T20:33:53;0.30;;;0.30;;
53245;SDS011;39569;51.090;-1.786;2022-11-21T20:37:19;0.40;;;0.40;;
53245;SDS011;39569;51.090;-1.786;2022-11-21T20:40:50;0.40;;;0.40;;
53245;SDS011;39569;51.090;-1.786;2022-11-21T20:44:17;0.40;;;0.40;;
53245;SDS011;39569;51.090;-1.786;2022-11-21T20:47:43;0.30;;;0.30;;
53245;SDS011;39569;51.090;-1.786;2022-11-21T20:51:08;0.40;;;0.40;;
53245;SDS011;39569;51.090;-1.786;2022-11-21T20:54:33;0.30;;;0.30;;